Time;durP1;ratioP1;P1;durP2;ratioP2;P2;SDS_P1;SDS_P2;PMS_P1;PMS_P2;Temp;Humidity;BMP_temperature;BMP_pressure;BME280_temperature;BME280_humidity;BME280_pressure;Samples;Min_cycle;Max_cycle;Signal;HPM_P1;HPM_P2
2024/03/08 00:02:37;;;;;;;1999.90;999.90;;;;;;;2.32;95.01;101808.78;10414141;28;20112;-66
2024/03/08 00:07:40;;;;;;;1999.90;999.90;;;;;;;2.10;95.00;101789.97;10414231;28;20072;-66
2024/03/08 00:12:44;;;;;;;1999.90;999.90;;;;;;;2.15;95.25;101784.75;10413099;28;20077;-66
2024/03/08 00:17:47;;;;;;;1999.90;999.90;;;;;;;1.77;96.14;101786.72;10412835;28;20526;-66
2024/03/08 00:22:51;;;;;;;1999.90;999.90;;;;;;;2.10;94.42;101781.34;10413839;28;20057;-66
2024/03/08 00:27:55;;;;;;;1999.90;999.90;;;;;;;1.85;95.82;101779.78;10413959;28;20053;-66
2024/03/08 00:32:59;;;;;;;1999.90;999.90;;;;;;;2.01;96.70;101771.94;10413696;28;20060;-66
2024/03/08 00:38:02;;;;;;;1999.90;999.90;;;;;;;1.84;96.93;101772.03;10413661;28;20160;-66
2024/03/08 00:43:04;;;;;;;1999.90;999.90;;;;;;;1.97;97.12;101771.09;10413641;28;20087;-66
2024/03/08 00:48:07;;;;;;;1999.90;999.90;;;;;;;1.73;95.94;101766.94;10413238;28;20129;-66
2024/03/08 00:53:11;;;;;;;1999.90;999.90;;;;;;;1.85;97.08;101755.69;10415015;28;20085;-66
2024/03/08 00:58:14;;;;;;;1999.90;999.90;;;;;;;1.66;96.06;101749.75;10420758;28;20468;-66
2024/03/08 01:03:16;;;;;;;1999.90;999.90;;;;;;;1.62;96.72;101745.47;10420793;28;20050;-66
2024/03/08 01:08:18;;;;;;;1999.90;999.90;;;;;;;1.69;98.19;101730.81;10420366;28;20041;-66
2024/03/08 01:13:21;;;;;;;1999.90;999.90;;;;;;;1.67;97.54;101730.81;10419918;28;20053;-66
2024/03/08 01:18:23;;;;;;;1999.90;999.90;;;;;;;1.63;96.46;101726.53;10419009;28;20108;-67
2024/03/08 01:23:26;;;;;;;1999.90;999.90;;;;;;;1.56;96.08;101719.69;10419525;28;20057;-66
2024/03/08 01:28:29;;;;;;;1999.90;999.90;;;;;;;1.49;97.41;101708.53;10419468;28;20482;-66
2024/03/08 01:33:32;;;;;;;1999.90;999.90;;;;;;;1.53;98.41;101699.94;10419488;28;20125;-67
2024/03/08 01:38:35;;;;;;;1999.90;999.90;;;;;;;1.56;98.03;101702.47;10418962;28;20133;-67
2024/03/08 01:43:38;;;;;;;1999.90;999.90;;;;;;;1.47;96.18;101699.94;10419487;28;20065;-66
2024/03/08 01:48:41;;;;;;;1999.90;999.90;;;;;;;1.38;96.84;101695.69;10418548;28;20048;-67
2024/03/08 01:53:47;;;;;;;1999.90;999.90;;;;;;;1.32;97.15;101695.72;10417683;28;20049;-66
2024/03/08 01:58:49;;;;;;;1999.90;999.90;;;;;;;1.61;96.24;101687.81;10416974;28;20124;-67
2024/03/08 02:03:52;;;;;;;1999.90;999.90;;;;;;;1.37;97.49;101681.06;10417369;28;20124;-67
2024/03/08 02:08:54;;;;;;;1999.90;999.90;;;;;;;1.10;97.44;101677.75;10417910;28;20071;-67
2024/03/08 02:13:57;;;;;;;1999.90;999.90;;;;;;;1.00;98.27;101670.91;10417793;28;20053;-67
2024/03/08 02:19:00;;;;;;;1999.90;999.90;;;;;;;1.11;98.18;101669.16;10417547;28;20103;-67
2024/03/08 02:24:03;;;;;;;1999.90;999.90;;;;;;;1.24;96.17;101662.19;10417149;28;20107;-67
2024/03/08 02:29:05;;;;;;;1999.90;999.90;;;;;;;1.15;97.18;101654.53;10416123;28;20045;-67
2024/03/08 02:34:09;;;;;;;1999.90;999.90;;;;;;;0.93;98.06;101648.59;10416899;28;20494;-67
2024/03/08 02:39:11;;;;;;;1999.90;999.90;;;;;;;1.10;98.61;101646.78;10415829;28;20050;-66
2024/03/08 02:44:14;;;;;;;1999.90;999.90;;;;;;;1.10;97.83;101645.94;10416833;28;20064;-67
2024/03/08 02:49:17;;;;;;;1999.90;999.90;;;;;;;0.98;97.02;101643.44;10416564;28;20042;-67
2024/03/08 02:54:20;;;;;;;1999.90;999.90;;;;;;;0.67;96.96;101628.03;10416512;28;20133;-66
2024/03/08 02:59:23;;;;;;;1999.90;999.90;;;;;;;0.82;98.71;101622.00;10414286;28;20556;-67
2024/03/08 03:04:26;;;;;;;1999.90;999.90;;;;;;;0.75;98.80;101628.88;10415738;28;20049;-66
2024/03/08 03:09:28;;;;;;;1999.90;999.90;;;;;;;0.69;97.31;101619.47;10415611;28;20078;-66
2024/03/08 03:14:30;;;;;;;1999.90;999.90;;;;;;;0.71;98.75;101622.03;10414171;28;20131;-66
2024/03/08 03:19:33;;;;;;;1999.90;999.90;;;;;;;0.63;96.30;101611.75;10415297;28;20513;-67
2024/03/08 03:24:38;;;;;;;1999.90;999.90;;;;;;;0.68;98.04;101616.88;10414746;28;20136;-66
2024/03/08 03:29:44;;;;;;;1999.90;999.90;;;;;;;0.54;98.17;101607.47;10415462;28;20053;-67
2024/03/08 03:34:46;;;;;;;1999.90;999.90;;;;;;;0.66;98.19;101600.59;10414867;28;20115;-67
2024/03/08 03:39:49;;;;;;;1999.90;999.90;;;;;;;0.47;97.86;101598.06;10414934;28;20049;-67
2024/03/08 03:44:52;;;;;;;1999.90;999.90;;;;;;;0.44;99.22;101600.63;10413524;28;20049;-67
2024/03/08 03:49:55;;;;;;;1999.90;999.90;;;;;;;0.52;97.30;101601.47;10414300;28;20041;-66
2024/03/08 03:54:57;;;;;;;1999.90;999.90;;;;;;;0.59;96.58;101594.59;10414698;28;20049;-67
2024/03/08 04:00:02;;;;;;;1999.90;999.90;;;;;;;0.62;97.68;101589.41;10414347;28;20049;-67
2024/03/08 04:05:09;;;;;;;1999.90;999.90;;;;;;;0.38;97.75;101589.50;10414216;28;20525;-67
2024/03/08 04:10:12;;;;;;;1999.90;999.90;;;;;;;0.37;97.99;101586.06;10414233;28;20049;-67
2024/03/08 04:15:15;;;;;;;1999.90;999.90;;;;;;;0.37;97.74;101580.91;10414476;28;20132;-67
2024/03/08 04:20:17;;;;;;;1999.90;999.90;;;;;;;0.44;95.55;101569.72;10413876;28;20095;-67
2024/03/08 04:25:21;;;;;;;1999.90;999.90;;;;;;;0.36;97.29;101568.88;10413982;28;20061;-67
2024/03/08 04:30:24;;;;;;;1999.90;999.90;;;;;;;0.13;96.86;101564.63;10420108;28;20045;-67
2024/03/08 04:35:26;;;;;;;1999.90;999.90;;;;;;;0.40;98.43;101564.56;10421517;28;20494;-67
2024/03/08 04:40:28;;;;;;;1999.90;999.90;;;;;;;0.16;98.40;101559.47;10421835;28;20045;-67
2024/03/08 04:45:31;;;;;;;1999.90;999.90;;;;;;;0.29;96.84;101557.72;10421404;28;20493;-67
2024/03/08 04:50:34;;;;;;;1999.90;999.90;;;;;;;0.22;97.89;101550.88;10421236;28;20125;-67
2024/03/08 04:55:37;;;;;;;1999.90;999.90;;;;;;;0.33;97.55;101550.84;10421180;28;20049;-67
2024/03/08 05:00:39;;;;;;;1999.90;999.90;;;;;;;0.01;97.66;101545.78;10420565;28;20063;-67
2024/03/08 05:05:42;;;;;;;1999.90;999.90;;;;;;;0.32;97.67;101543.97;10419450;28;20050;-67
2024/03/08 05:10:44;;;;;;;1999.90;999.90;;;;;;;0.31;97.62;101537.13;10420353;28;20108;-67
2024/03/08 05:15:50;;;;;;;1999.90;999.90;;;;;;;0.35;96.98;101531.97;10418972;28;20096;-68
2024/03/08 05:20:52;;;;;;;1999.90;999.90;;;;;;;0.07;97.78;101531.19;10419720;28;20042;-68
2024/03/08 05:25:55;;;;;;;1999.90;999.90;;;;;;;0.33;96.89;101527.66;10419405;28;20061;-68
2024/03/08 05:30:58;;;;;;;1999.90;999.90;;;;;;;0.55;96.75;101528.44;10419451;28;20099;-67
2024/03/08 05:41:04;;;;;;;1999.90;999.90;;;;;;;-0.03;97.73;101521.75;10376387;28;20052;-67
2024/03/08 05:46:07;;;;;;;1999.90;999.90;;;;;;;0.20;96.36;101519.09;10377790;28;20049;-67
2024/03/08 05:51:09;;;;;;;1999.90;999.90;;;;;;;0.51;97.95;101514.72;10377963;28;20141;-67
2024/03/08 05:56:12;;;;;;;1999.90;999.90;;;;;;;-0.17;98.04;101503.75;10377617;28;20054;-67
2024/03/08 06:01:15;;;;;;;1999.90;999.90;;;;;;;-0.13;97.98;101504.63;10377754;28;20049;-67
2024/03/08 06:06:17;;;;;;;1999.90;999.90;;;;;;;-0.07;96.91;101508.03;10376004;28;20100;-67
2024/03/08 06:11:21;;;;;;;1999.90;999.90;;;;;;;-0.19;98.76;101501.16;10376917;28;20073;-67
2024/03/08 06:16:24;;;;;;;1999.90;999.90;;;;;;;0.40;98.65;101503.59;10375792;28;20054;-68
2024/03/08 06:21:26;;;;;;;1999.90;999.90;;;;;;;-0.37;100.00;101496.03;10376473;28;20398;-68
2024/03/08 06:26:29;;;;;;;1999.90;999.90;;;;;;;-0.08;99.34;101488.28;10376884;28;20049;-68
2024/03/08 06:31:32;;;;;;;1999.90;999.90;;;;;;;0.13;98.72;101484.78;10376422;28;20080;-68
2024/03/08 06:36:37;;;;;;;1999.90;999.90;;;;;;;0.29;99.08;101489.91;10376338;28;20096;-68
2024/03/08 06:41:40;;;;;;;1999.90;999.90;;;;;;;0.41;97.39;101484.69;10376012;28;20104;-68
2024/03/08 06:46:43;;;;;;;1999.90;999.90;;;;;;;0.69;96.71;101494.88;10375672;28;20054;-68
2024/03/08 06:51:45;;;;;;;1999.90;999.90;;;;;;;0.57;97.82;101488.06;10374594;28;20554;-68
2024/03/08 06:56:48;;;;;;;1999.90;999.90;;;;;;;0.68;97.07;101491.44;10375468;28;20056;-67
2024/03/08 07:01:51;;;;;;;1999.90;999.90;;;;;;;0.92;97.31;101484.44;10375818;28;20125;-67
2024/03/08 07:06:53;;;;;;;1999.90;999.90;;;;;;;1.40;94.43;101486.69;10374790;28;20052;-71
2024/03/08 07:11:56;;;;;;;1999.90;999.90;;;;;;;1.65;92.86;101480.41;10374594;28;20054;-68
2024/03/08 07:16:58;;;;;;;1999.90;999.90;;;;;;;1.92;92.27;101469.84;10374633;28;20050;-68
2024/03/08 07:22:03;;;;;;;1999.90;999.90;;;;;;;2.00;91.21;101470.59;10374685;28;20401;-68
2024/03/08 07:27:06;;;;;;;1999.90;999.90;;;;;;;2.17;91.66;101466.09;10374910;28;20080;-68
2024/03/08 07:32:20;;;;;;;1999.90;999.90;;;;;;;2.38;91.46;101472.72;10374220;28;20050;-67
2024/03/08 07:37:23;;;;;;;1999.90;999.90;;;;;;;3.02;88.75;101458.94;10374309;28;20054;-67
2024/03/08 07:42:25;;;;;;;1999.90;999.90;;;;;;;3.28;86.99;101443.00;10374133;28;20455;-67
2024/03/08 07:47:30;;;;;;;1999.90;999.90;;;;;;;3.66;85.51;101450.06;10373936;28;20470;-67
2024/03/08 07:52:33;;;;;;;1999.90;999.90;;;;;;;3.71;86.23;101443.06;10373873;28;20077;-66
2024/03/08 07:57:38;;;;;;;1999.90;999.90;;;;;;;3.89;85.59;101433.25;10373475;28;20049;-66
2024/03/08 08:02:41;;;;;;;1999.90;999.90;;;;;;;3.34;84.27;101435.09;10375658;28;20402;-66
2024/03/08 08:07:45;;;;;;;1999.90;999.90;;;;;;;3.87;83.57;101433.28;10381719;28;20467;-66
2024/03/08 08:12:51;;;;;;;1999.90;999.90;;;;;;;4.67;84.15;101420.38;10381733;28;20056;-66
2024/03/08 08:17:53;;;;;;;1999.90;999.90;;;;;;;4.53;80.67;101412.06;10381469;28;20054;-66
2024/03/08 08:22:56;;;;;;;1999.90;999.90;;;;;;;5.18;79.97;101403.63;10381358;28;20553;-66
2024/03/08 08:27:58;;;;;;;1999.90;999.90;;;;;;;5.72;79.16;101394.41;10381040;28;20551;-66
2024/03/08 08:33:01;;;;;;;1999.90;999.90;;;;;;;5.80;75.98;101397.66;10380804;28;20049;-66
2024/03/08 08:38:04;;;;;;;1999.90;999.90;;;;;;;6.32;75.54;101384.88;10380444;28;20081;-66
2024/03/08 08:43:07;;;;;;;1999.90;999.90;;;;;;;6.48;73.63;101380.94;10379391;28;20403;-66
2024/03/08 08:48:10;;;;;;;1999.90;999.90;;;;;;;7.36;73.25;101382.41;10380387;28;20112;-66
2024/03/08 08:53:14;;;;;;;1999.90;999.90;;;;;;;6.88;72.70;101376.22;10379942;28;20050;-66
2024/03/08 08:58:18;;;;;;;1999.90;999.90;;;;;;;7.27;68.97;101359.31;10379938;28;20045;-66
2024/03/08 09:03:20;;;;;;;1999.90;999.90;;;;;;;7.42;70.38;101350.97;10379740;28;20487;-65
2024/03/08 09:08:23;;;;;;;1999.90;999.90;;;;;;;8.70;68.51;101346.16;10379442;28;20057;-65
2024/03/08 09:13:25;;;;;;;1999.90;999.90;;;;;;;8.93;68.32;101339.97;10379159;28;20084;-65
2024/03/08 09:18:35;;;;;;;1999.90;999.90;;;;;;;10.11;66.06;101333.06;10378856;28;20564;-65
2024/03/08 09:23:37;;;;;;;1999.90;999.90;;;;;;;10.16;65.52;101323.22;10379180;28;20045;-65
2024/03/08 09:28:40;;;;;;;1999.90;999.90;;;;;;;11.00;63.53;101315.66;10378552;28;20053;-65
2024/03/08 09:33:43;;;;;;;1999.90;999.90;;;;;;;12.02;61.84;101305.03;10378918;28;20053;-65
2024/03/08 09:38:45;;;;;;;1999.90;999.90;;;;;;;10.75;60.03;101297.69;10378138;28;20133;-65
2024/03/08 09:43:48;;;;;;;1999.90;999.90;;;;;;;11.96;60.63;101298.38;10377256;28;20050;-65
2024/03/08 09:48:50;;;;;;;1999.90;999.90;;;;;;;12.34;59.83;101276.13;10378310;28;20050;-66
2024/03/08 09:53:53;;;;;;;1999.90;999.90;;;;;;;13.20;57.22;101274.56;10377460;28;20085;-65
2024/03/08 10:04:17;;;;;;;1999.90;999.90;;;;;;;13.93;56.19;101255.13;10377361;28;20185;-66
2024/03/08 10:09:20;;;;;;;1999.90;999.90;;;;;;;12.65;56.74;101246.31;10376980;28;20511;-65
2024/03/08 10:14:23;;;;;;;1999.90;999.90;;;;;;;15.82;52.46;101232.72;10376799;28;20080;-65
2024/03/08 10:19:27;;;;;;;1999.90;999.90;;;;;;;14.27;50.82;101223.13;10376692;28;20483;-66
2024/03/08 10:24:30;;;;;;;1999.90;999.90;;;;;;;15.94;52.28;101221.25;10374470;28;20491;-66
2024/03/08 10:29:33;;;;;;;1999.90;999.90;;;;;;;15.88;51.02;101212.94;10376287;28;20402;-66
2024/03/08 10:34:35;;;;;;;1999.90;999.90;;;;;;;15.89;50.44;101198.78;10376253;28;20084;-66
2024/03/08 10:39:39;;;;;;;1999.90;999.90;;;;;;;15.49;49.08;101189.28;10375987;28;20046;-66
2024/03/08 10:44:54;;;;;;;1999.90;999.90;;;;;;;15.40;49.29;101185.50;10375043;28;20137;-66
2024/03/08 10:50:06;;;;;;;1999.90;999.90;;;;;;;17.03;46.83;101175.16;10375575;28;20091;-66
2024/03/08 10:55:12;;;;;;;;;;;;;;;16.71;46.95;101156.50;10376254;28;20060;-66
2024/03/08 11:00:16;;;;;;;1999.90;999.90;;;;;;;16.77;46.59;101147.25;10405905;28;20461;-66
2024/03/08 11:05:39;;;;;;;1999.90;999.90;;;;;;;15.88;49.14;101145.13;10374874;28;20053;-66
2024/03/08 11:10:52;;;;;;;1999.90;999.90;;;;;;;17.30;45.56;101128.94;10374778;28;20423;-66
2024/03/08 11:15:55;;;;;;;1999.90;999.90;;;;;;;18.22;47.70;101124.97;10373620;28;20417;-66
2024/03/08 11:20:57;;;;;;;1999.90;999.90;;;;;;;18.48;44.11;101120.97;10373382;28;20073;-66
2024/03/08 11:26:00;;;;;;;1999.90;999.90;;;;;;;18.58;42.27;101091.84;10373046;28;20052;-66
2024/03/08 11:31:03;;;;;;;1999.90;999.90;;;;;;;17.93;46.47;101094.66;10374270;28;20133;-66
2024/03/08 11:36:16;;;;;;;1999.90;999.90;;;;;;;18.97;42.85;101076.09;10373888;28;20613;-66
2024/03/08 11:41:20;;;;;;;1999.90;999.90;;;;;;;18.65;42.79;101076.25;10374444;28;20052;-66
2024/03/08 11:46:28;;;;;;;1999.90;999.90;;;;;;;18.89;42.60;101060.84;10374033;28;20078;-66
2024/03/08 11:51:30;;;;;;;1999.90;999.90;;;;;;;17.86;42.26;101061.69;10373622;28;20042;-66
2024/03/08 11:56:34;;;;;;;1999.90;999.90;;;;;;;16.41;40.88;101062.75;10372510;28;20115;-66
2024/03/08 12:01:36;;;;;;;1999.90;999.90;;;;;;;16.76;42.72;101053.88;10373391;28;20100;-67
2024/03/08 12:06:40;;;;;;;1999.90;999.90;;;;;;;19.02;41.58;101039.38;10373525;28;20050;-67
2024/03/08 12:11:43;;;;;;;1999.90;999.90;;;;;;;19.65;40.38;101033.66;10373346;28;20049;-67
2024/03/08 12:16:46;;;;;;;1999.90;999.90;;;;;;;18.98;41.64;101039.78;10373357;28;20053;-67
2024/03/08 12:21:48;;;;;;;1999.90;999.90;;;;;;;18.74;41.32;101020.59;10373253;28;20049;-67
2024/03/08 12:26:51;;;;;;;1999.90;999.90;;;;;;;17.86;40.73;101024.63;10373251;28;20057;-67
2024/03/08 12:31:58;;;;;;;1999.90;999.90;;;;;;;19.58;40.13;100999.84;10373037;28;20497;-67
2024/03/08 12:37:01;;;;;;;1999.90;999.90;;;;;;;18.60;41.07;100998.91;10371764;28;20081;-67
2024/03/08 12:42:04;;;;;;;1999.90;999.90;;;;;;;19.16;40.53;100978.91;10371748;28;20586;-67
2024/03/08 12:47:08;;;;;;;1999.90;999.90;;;;;;;18.29;39.57;100980.38;10372817;28;20060;-67
2024/03/08 12:52:11;;;;;;;1999.90;999.90;;;;;;;20.40;37.98;100964.63;10379670;28;20045;-67
2024/03/08 12:57:14;;;;;;;1999.90;999.90;;;;;;;19.43;38.90;100968.44;10380110;28;20514;-67
2024/03/08 13:02:16;;;;;;;1999.90;999.90;;;;;;;18.28;39.97;100953.03;10379641;28;20129;-67
2024/03/08 13:07:19;;;;;;;1999.90;999.90;;;;;;;20.05;38.45;100946.75;10379543;28;20054;-67
2024/03/08 13:12:23;;;;;;;1999.90;999.90;;;;;;;18.53;40.64;100929.69;10379277;28;20081;-67
2024/03/08 13:17:26;;;;;;;1999.90;999.90;;;;;;;18.92;41.45;100930.56;10379437;28;20045;-67
2024/03/08 13:22:29;;;;;;;1999.90;999.90;;;;;;;19.09;39.34;100921.06;10377713;28;20387;-67
2024/03/08 13:27:31;;;;;;;1999.90;999.90;;;;;;;20.50;38.53;100914.03;10378910;28;20064;-67
2024/03/08 13:32:34;;;;;;;1999.90;999.90;;;;;;;19.02;42.11;100917.31;10377451;28;20482;-67
2024/03/08 13:37:36;;;;;;;1999.90;999.90;;;;;;;20.10;38.47;100904.63;10378380;28;20494;-67
2024/03/08 13:42:39;;;;;;;1999.90;999.90;;;;;;;18.79;39.18;100892.84;10377151;28;20046;-67
2024/03/08 13:47:43;;;;;;;1999.90;999.90;;;;;;;19.73;39.97;100902.78;10378059;28;20050;-67
2024/03/08 13:52:45;;;;;;;1999.90;999.90;;;;;;;18.98;39.51;100885.88;10376952;28;20042;-67
2024/03/08 13:57:48;;;;;;;1999.90;999.90;;;;;;;18.33;39.85;100876.59;10377792;28;20046;-67
2024/03/08 14:02:51;;;;;;;1999.90;999.90;;;;;;;18.03;40.40;100874.03;10376213;28;20080;-67
2024/03/08 14:07:54;;;;;;;1999.90;999.90;;;;;;;17.25;41.60;100858.59;10377254;28;20451;-67
2024/03/08 14:12:57;;;;;;;1999.90;999.90;;;;;;;18.02;40.17;100841.38;10377098;28;20074;-67
2024/03/08 14:17:59;;;;;;;1999.90;999.90;;;;;;;19.45;38.83;100838.16;10377102;28;20049;-67
2024/03/08 14:23:02;;;;;;;1999.90;999.90;;;;;;;18.53;39.78;100824.47;10376813;28;20045;-67
2024/03/08 14:28:07;;;;;;;1999.90;999.90;;;;;;;18.54;39.65;100818.19;10375395;28;20065;-67
2024/03/08 14:33:09;;;;;;;1999.90;999.90;;;;;;;18.85;39.51;100804.78;10376277;28;20115;-67
2024/03/08 14:38:12;;;;;;;1999.90;999.90;;;;;;;19.94;39.57;100790.16;10374832;28;20137;-67
2024/03/08 14:43:16;;;;;;;1999.90;999.90;;;;;;;20.09;37.86;100788.69;10375898;28;20485;-67
2024/03/08 14:48:19;;;;;;;1999.90;999.90;;;;;;;21.75;36.72;100783.53;10375810;28;20058;-67
2024/03/08 14:53:21;;;;;;;1999.90;999.90;;;;;;;20.24;37.23;100775.72;10375837;28;20104;-67
2024/03/08 14:58:24;;;;;;;1999.90;999.90;;;;;;;21.26;34.17;100765.50;10375361;28;20494;-67
2024/03/08 15:03:28;;;;;;;1999.90;999.90;;;;;;;21.93;33.73;100759.44;10375229;28;20112;-67
2024/03/08 15:08:32;;;;;;;1999.90;999.90;;;;;;;22.22;33.53;100753.66;10373923;28;20128;-67
2024/03/08 15:13:41;;;;;;;1999.90;999.90;;;;;;;20.35;35.45;100743.56;10373058;28;20545;-67
2024/03/08 15:18:47;;;;;;;1999.90;999.90;;;;;;;24.44;31.47;100729.69;10375274;28;20108;-67
2024/03/08 15:23:54;;;;;;;1999.90;999.90;;;;;;;23.32;31.92;100714.00;10374659;28;20054;-67
2024/03/08 15:28:57;;;;;;;1999.90;999.90;;;;;;;21.62;34.50;100714.72;10373404;28;20050;-67
2024/03/08 15:34:06;;;;;;;1999.90;999.90;;;;;;;23.11;32.36;100711.06;10372945;28;20073;-70
2024/03/08 15:39:10;;;;;;;1999.90;999.90;;;;;;;24.44;29.90;100696.72;10373097;28;20136;-70
2024/03/08 15:44:13;;;;;;;1999.90;999.90;;;;;;;22.39;31.96;100702.03;10373837;28;20103;-69
2024/03/08 15:49:16;;;;;;;1999.90;999.90;;;;;;;23.78;30.54;100693.72;10356902;28;20141;-70
2024/03/08 15:54:18;;;;;;;1999.90;999.90;;;;;;;19.10;37.58;100697.22;10373588;28;20122;-70
2024/03/08 15:59:21;;;;;;;1999.90;999.90;;;;;;;17.88;38.99;100696.94;10373874;28;20046;-70
2024/03/08 16:04:25;;;;;;;1999.90;999.90;;;;;;;15.59;42.83;100685.41;10372950;28;20080;-69
2024/03/08 16:09:29;;;;;;;1999.90;999.90;;;;;;;14.42;45.84;100700.53;10373779;28;20077;-69
2024/03/08 16:14:36;;;;;;;1999.90;999.90;;;;;;;14.09;46.96;100681.06;10373055;28;20080;-69
2024/03/08 16:19:41;;;;;;;1999.90;999.90;;;;;;;12.53;48.92;100680.63;10372969;28;20634;-69
2024/03/08 16:24:44;;;;;;;1999.90;999.90;;;;;;;12.63;49.18;100681.66;10377157;28;20056;-69
2024/03/08 16:29:47;;;;;;;1999.90;999.90;;;;;;;11.72;52.25;100681.53;10380590;28;20057;-67
2024/03/08 16:34:51;;;;;;;1999.90;999.90;;;;;;;11.34;52.76;100680.38;10380880;28;20056;-66
2024/03/08 16:39:54;;;;;;;1999.90;999.90;;;;;;;11.30;52.95;100681.50;10379186;28;20232;-67
2024/03/08 16:44:56;;;;;;;1999.90;999.90;;;;;;;10.94;54.64;100680.22;10379866;28;20447;-67
2024/03/08 16:49:58;;;;;;;1999.90;999.90;;;;;;;10.69;54.31;100672.16;10380184;28;20129;-67
2024/03/08 16:55:02;;;;;;;1999.90;999.90;;;;;;;10.66;55.51;100677.56;10379926;28;20380;-67
2024/03/08 17:00:18;;;;;;;1999.90;999.90;;;;;;;10.31;56.64;100681.31;10380288;28;20504;-67
2024/03/08 17:05:20;;;;;;;1999.90;999.90;;;;;;;9.99;57.17;100694.47;10378468;28;20049;-67
2024/03/08 17:10:27;;;;;;;1999.90;999.90;;;;;;;10.00;57.12;100688.31;10380012;28;20053;-67
2024/03/08 17:15:31;;;;;;;1999.90;999.90;;;;;;;9.14;57.61;100682.56;10377996;28;20419;-67
2024/03/08 17:20:38;;;;;;;1999.90;999.90;;;;;;;9.26;58.44;100679.31;10379290;28;20105;-67
2024/03/08 17:25:42;;;;;;;1999.90;999.90;;;;;;;9.24;58.67;100675.06;10378956;28;20096;-67
2024/03/08 17:30:46;;;;;;;1999.90;999.90;;;;;;;8.83;59.26;100676.34;10377592;28;20056;-67
2024/03/08 17:35:52;;;;;;;1999.90;999.90;;;;;;;9.11;59.83;100682.72;10378071;28;20060;-66
2024/03/08 17:40:55;;;;;;;1999.90;999.90;;;;;;;8.58;61.30;100679.38;10377783;28;20053;-67
2024/03/08 17:45:58;;;;;;;1999.90;999.90;;;;;;;8.25;63.22;100677.47;10378114;28;20384;-76
2024/03/08 17:56:12;;;;;;;1999.90;999.90;;;;;;;8.06;63.18;100677.56;10335745;28;20104;-71
2024/03/08 18:01:17;;;;;;;1999.90;999.90;;;;;;;7.98;64.15;100685.78;10351691;28;20046;-71
2024/03/08 18:06:23;;;;;;;1999.90;999.90;;;;;;;8.04;63.30;100691.59;10337290;28;20100;-71
2024/03/08 18:11:26;;;;;;;1999.90;999.90;;;;;;;7.90;64.82;100680.06;10336907;28;20074;-71
2024/03/08 18:16:30;;;;;;;1999.90;999.90;;;;;;;7.60;65.30;100679.78;10336445;28;20129;-71
2024/03/08 18:21:36;;;;;;;1999.90;999.90;;;;;;;7.31;66.85;100673.28;10351327;28;20129;-71
2024/03/08 18:26:41;;;;;;;1999.90;999.90;;;;;;;7.24;67.40;100670.13;10335947;28;20402;-71
2024/03/08 18:31:45;;;;;;;1999.90;999.90;;;;;;;7.02;67.66;100662.44;10336155;28;20074;-71
2024/03/08 18:36:48;;;;;;;1999.90;999.90;;;;;;;6.95;68.39;100664.47;10335804;28;20133;-70
2024/03/08 18:41:51;;;;;;;1999.90;999.90;;;;;;;6.73;69.57;100655.91;10350793;28;20050;-70
2024/03/08 18:46:56;;;;;;;1999.90;999.90;;;;;;;6.73;70.06;100655.91;10334501;28;20057;-71
2024/03/08 18:51:59;;;;;;;1999.90;999.90;;;;;;;6.60;70.31;100651.22;10349295;28;20050;-70
2024/03/08 18:57:05;;;;;;;1999.90;999.90;;;;;;;6.60;71.09;100647.78;10334941;28;20454;-70
2024/03/08 19:02:07;;;;;;;1999.90;999.90;;;;;;;6.56;70.91;100647.09;10334489;28;20054;-70
2024/03/08 19:07:09;;;;;;;1999.90;999.90;;;;;;;6.40;71.08;100635.63;10349716;28;20050;-71
2024/03/08 19:12:12;;;;;;;1999.90;999.90;;;;;;;6.56;71.04;100634.06;10334273;28;20410;-71
2024/03/08 19:17:15;;;;;;;1999.90;999.90;;;;;;;6.26;71.98;100628.44;10334546;28;20129;-71
2024/03/08 19:22:18;;;;;;;1999.90;999.90;;;;;;;6.33;72.27;100632.44;10334040;28;20080;-71
2024/03/08 19:27:20;;;;;;;1999.90;999.90;;;;;;;6.07;72.72;100631.78;10316681;28;20158;-71
2024/03/08 19:32:23;;;;;;;1999.90;999.90;;;;;;;5.95;73.98;100617.53;10333821;28;20086;-71
2024/03/08 19:37:26;;;;;;;1999.90;999.90;;;;;;;6.05;73.47;100618.03;10333698;28;20050;-71
2024/03/08 19:42:29;;;;;;;1999.90;999.90;;;;;;;6.09;72.96;100621.34;10333620;28;20054;-70
2024/03/08 19:47:31;;;;;;;1999.90;999.90;;;;;;;5.90;74.30;100606.47;10333596;28;20054;-71
2024/03/08 19:52:34;;;;;;;1999.90;999.90;;;;;;;6.59;71.59;100609.66;10333268;28;20508;-71
2024/03/08 19:57:41;;;;;;;1999.90;999.90;;;;;;;6.04;72.99;100607.69;10336884;28;20057;-70
2024/03/08 20:02:45;;;;;;;1999.90;999.90;;;;;;;6.07;72.96;100599.72;10346269;28;20101;-70
2024/03/08 20:07:54;;;;;;;1999.90;999.90;;;;;;;5.75;73.33;100607.94;10346479;28;20101;-71
2024/03/08 20:12:57;;;;;;;1999.90;999.90;;;;;;;5.86;73.32;100612.69;10346423;28;20065;-71
2024/03/08 20:18:02;;;;;;;1999.90;999.90;;;;;;;5.91;73.90;100602.94;10346595;28;20053;-71
2024/03/08 20:23:07;;;;;;;1999.90;999.90;;;;;;;5.69;74.59;100599.53;10360883;28;20050;-71
2024/03/08 20:28:10;;;;;;;1999.90;999.90;;;;;;;5.98;74.15;100589.75;10361109;28;20518;-71
2024/03/08 20:33:13;;;;;;;1999.90;999.90;;;;;;;5.72;75.50;100584.66;10361297;28;20504;-71
2024/03/08 20:38:20;;;;;;;1999.90;999.90;;;;;;;5.65;76.00;100587.56;10328905;28;20053;-71
2024/03/08 20:43:24;;;;;;;1999.90;999.90;;;;;;;5.86;74.48;100580.66;10345901;28;20054;-70
2024/03/08 20:48:27;;;;;;;1999.90;999.90;;;;;;;5.73;74.44;100575.97;10345684;28;20125;-70
2024/03/08 20:53:30;;;;;;;1999.90;999.90;;;;;;;5.63;75.32;100573.81;10345760;28;20086;-71
2024/03/08 20:58:33;;;;;;;1999.90;999.90;;;;;;;5.93;74.73;100561.31;10345502;28;20085;-70
2024/03/08 21:03:37;;;;;;;1999.90;999.90;;;;;;;5.66;74.64;100558.94;10345896;28;20057;-71
2024/03/08 21:08:41;;;;;;;1999.90;999.90;;;;;;;5.73;74.67;100564.72;10343660;28;20054;-70
2024/03/08 21:13:43;;;;;;;1999.90;999.90;;;;;;;5.66;74.80;100569.31;10339197;28;20042;-70
2024/03/08 21:18:46;;;;;;;1999.90;999.90;;;;;;;5.51;75.56;100567.34;10321779;28;20058;-71
2024/03/08 21:23:49;;;;;;;1999.90;999.90;;;;;;;5.56;75.07;100566.28;10338844;28;20085;-71
2024/03/08 21:28:51;;;;;;;1999.90;999.90;;;;;;;5.25;77.23;100565.78;10338621;28;20047;-70
2024/03/08 21:33:53;;;;;;;1999.90;999.90;;;;;;;5.28;77.57;100571.72;10337914;28;20113;-70
2024/03/08 21:38:56;;;;;;;1999.90;999.90;;;;;;;5.08;77.45;100561.22;10338304;28;20054;-70
2024/03/08 21:43:59;;;;;;;1999.90;999.90;;;;;;;4.86;78.36;100561.19;10337966;28;20046;-70
2024/03/08 21:49:03;;;;;;;1999.90;999.90;;;;;;;4.91;78.95;100557.56;10338158;28;20530;-70
2024/03/08 21:54:06;;;;;;;1999.90;999.90;;;;;;;4.69;78.69;100564.41;10337578;28;20162;-70
2024/03/08 21:59:09;;;;;;;1999.90;999.90;;;;;;;4.41;79.73;100553.31;10337391;28;20061;-70
2024/03/08 22:04:12;;;;;;;1999.90;999.90;;;;;;;4.72;79.63;100552.19;10337097;28;20061;-70
2024/03/08 22:09:14;;;;;;;1999.90;999.90;;;;;;;4.37;80.48;100543.09;10351915;28;20112;-70
2024/03/08 22:14:17;;;;;;;1999.90;999.90;;;;;;;4.44;80.77;100545.41;10337609;28;20078;-70
2024/03/08 22:19:19;;;;;;;1999.90;999.90;;;;;;;4.34;80.72;100544.06;10336567;28;20074;-70
2024/03/08 22:24:23;;;;;;;1999.90;999.90;;;;;;;4.46;80.63;100548.81;10335192;28;20092;-70